»·PEaware :: N6262K KVNY-KPSP

N6262K :: KVNY-KPSP

FLIGHT INFORMATION

Flight Status: Arrived
Operator: Privately registered:
United States
More flights under this callsign
Pilot: Judson K. (15650)
Aircraft: CESSNA 172 SKYHAWK
(C172)
More flights by this aircraft type
Origin: KVNY Van Nuys
United States
Destination: KPSP Palm Springs Intl
United States
More flights between these airports :: More routes between these airports
Route: +VNY V186 PDZ V388 PSP
File this flight plan on PilotEdge
Remarks:
Altitude:
(Current/Filed)
6,000ft
Speed:
(Current/Filed)
110kts
Departed: 03-Oct-17 07:16 PM
Arrived: 03-Oct-17 08:12 PM
Distance/Time
Traveled:
102nm/0:55
Distance/Time
To Go:
Arrived

Flight Plot

Page will automatically refresh every two minutes.

Flight plan parsing failed; only flown route is shown


Map Options




Map Legend


Flown Route
Filed Route
Departure Airport
Arrival Airport
Navaid (VOR, NDB)
Fix

Horizontal Profiles

Position Reports

Time Latitude Longitude Heading Altitude Ground
Speed
03-Oct-17 18:58 34.205355 -118.492853 267 804ft 0kts
03-Oct-17 18:59 34.205355 -118.492853 267 804ft 0kts
03-Oct-17 19:00 34.205355 -118.492853 267 804ft 0kts
03-Oct-17 19:01 34.205355 -118.492853 267 804ft 0kts
03-Oct-17 19:02 34.205355 -118.492853 267 804ft 0kts
03-Oct-17 19:03 34.205355 -118.492853 267 804ft 0kts
03-Oct-17 19:04 34.205355 -118.492853 267 804ft 0kts
03-Oct-17 19:05 34.205355 -118.492853 267 804ft 0kts
03-Oct-17 19:06 34.205355 -118.492853 267 804ft 0kts
03-Oct-17 19:07 34.205355 -118.492853 267 804ft 0kts
03-Oct-17 19:08 34.205355 -118.492853 267 804ft 0kts
03-Oct-17 19:09 34.205355 -118.492854 267 804ft 0kts
03-Oct-17 19:10 34.205355 -118.492854 267 804ft 0kts
03-Oct-17 19:11 34.205355 -118.492854 267 804ft 0kts
03-Oct-17 19:12 34.206430 -118.492217 92 804ft 15kts
03-Oct-17 19:13 34.206341 -118.491568 87 804ft 0kts
03-Oct-17 19:14 34.209074 -118.491473 356 804ft 20kts
03-Oct-17 19:15 34.214249 -118.491963 354 804ft 15kts
03-Oct-17 19:16 34.218863 -118.492051 65 804ft 12kts
03-Oct-17 19:17 34.218825 -118.491935 149 804ft 0kts
03-Oct-17 19:18 34.218825 -118.491935 150 804ft 0kts
03-Oct-17 19:19 34.218389 -118.491193 176 804ft 18kts
03-Oct-17 19:20 34.197552 -118.486964 131 1457ft 92kts
03-Oct-17 19:21 34.183772 -118.463017 121 2527ft 85kts
03-Oct-17 19:22 34.169720 -118.438484 121 3450ft 95kts
03-Oct-17 19:23 34.155369 -118.410845 121 4346ft 99kts
03-Oct-17 19:24 34.142564 -118.383082 121 5103ft 97kts
03-Oct-17 19:25 34.129128 -118.353819 121 5796ft 103kts
03-Oct-17 19:26 34.120548 -118.317363 82 5998ft 131kts
03-Oct-17 19:27 34.123246 -118.272874 82 5992ft 138kts
03-Oct-17 19:28 34.126270 -118.227499 82 5989ft 135kts
03-Oct-17 19:29 34.129415 -118.183917 93 5984ft 131kts
03-Oct-17 19:30 34.117764 -118.142966 112 6001ft 129kts
03-Oct-17 19:31 34.105530 -118.103044 112 6009ft 129kts
03-Oct-17 19:32 34.093210 -118.062453 113 6008ft 129kts
03-Oct-17 19:33 34.080786 -118.022302 115 6008ft 128kts
03-Oct-17 19:34 34.068734 -117.982746 116 6008ft 126kts
03-Oct-17 19:35 34.056857 -117.943869 117 6008ft 124kts
03-Oct-17 19:36 34.045013 -117.905332 118 6008ft 122kts
03-Oct-17 19:37 34.033211 -117.867100 118 6008ft 122kts
03-Oct-17 19:38 34.021601 -117.829569 117 6027ft 122kts
03-Oct-17 19:39 34.009839 -117.791655 117 6027ft 125kts
03-Oct-17 19:40 33.997201 -117.752299 113 6025ft 127kts
03-Oct-17 19:41 33.983415 -117.713359 118 6009ft 127kts
03-Oct-17 19:42 33.969593 -117.674312 118 6009ft 126kts
03-Oct-17 19:43 33.955972 -117.635700 118 6010ft 126kts
03-Oct-17 19:44 33.942210 -117.596734 118 5992ft 127kts
03-Oct-17 19:45 33.928140 -117.557468 118 5992ft 127kts
03-Oct-17 19:46 33.916502 -117.517506 94 6002ft 130kts
03-Oct-17 19:47 33.915251 -117.473872 93 6002ft 130kts
03-Oct-17 19:48 33.913659 -117.430202 93 5992ft 131kts
03-Oct-17 19:49 33.911658 -117.386550 95 5996ft 130kts
03-Oct-17 19:50 33.909908 -117.345897 95 6645ft 120kts
03-Oct-17 19:51 33.908039 -117.307178 95 7401ft 114kts
03-Oct-17 19:52 33.906294 -117.269639 95 8170ft 111kts
03-Oct-17 19:53 33.904625 -117.233020 97 8936ft 109kts
03-Oct-17 19:54 33.902370 -117.191261 97 9001ft 132kts
03-Oct-17 19:55 33.900003 -117.146483 98 8998ft 134kts
03-Oct-17 19:56 33.897474 -117.103253 97 9000ft 132kts
03-Oct-17 19:57 33.895188 -117.059028 97 9000ft 133kts
03-Oct-17 19:58 33.892908 -117.014449 97 9000ft 133kts
03-Oct-17 19:59 33.890625 -116.969832 97 9000ft 133kts
03-Oct-17 20:00 33.888331 -116.925194 97 9001ft 134kts
03-Oct-17 20:01 33.885944 -116.880380 97 9001ft 134kts
03-Oct-17 20:02 33.895916 -116.836780 71 8958ft 139kts
03-Oct-17 20:03 33.907289 -116.792699 71 8899ft 131kts
03-Oct-17 20:04 33.917850 -116.751766 71 8909ft 126kts
03-Oct-17 20:05 33.928394 -116.711995 71 8912ft 126kts
03-Oct-17 20:06 33.939450 -116.670349 71 8912ft 133kts
03-Oct-17 20:07 33.949907 -116.627548 95 8834ft 133kts
03-Oct-17 20:08 33.931029 -116.589204 124 8117ft 137kts
03-Oct-17 20:09 33.907381 -116.555165 146 6690ft 142kts
03-Oct-17 20:10 33.877922 -116.524406 142 5011ft 133kts
03-Oct-17 20:11 33.848410 -116.496684 144 3333ft 138kts
03-Oct-17 20:12 33.818506 -116.470116 147 1749ft 124kts
03-Oct-17 20:13 33.802231 -116.479765 311 1048ft 67kts
03-Oct-17 20:14 33.813624 -116.490541 325 810ft 46kts
03-Oct-17 20:15 33.823505 -116.499336 324 536ft 42kts
03-Oct-17 20:16 33.829547 -116.504691 329 480ft 10kts
03-Oct-17 20:17 33.829318 -116.503482 143 480ft 13kts
03-Oct-17 20:18 33.825367 -116.499992 143 480ft 17kts
03-Oct-17 20:19 33.824022 -116.498890 72 480ft 0kts
03-Oct-17 20:20 33.824037 -116.498857 53 480ft 0kts
03-Oct-17 20:21 33.824005 -116.498908 53 480ft 0kts

Navigation Log

Ident Type
Flight plan parsing failed, navigation log unavailable